Latest Weather Observations for Deniliquin

IDN60801

Issued at 5:05 am EDT Friday 24 October 2014 (issued every 30 minutes, with the page automatically refreshed every 10 minutes)

About weather observations | Map of weather stations | Latest weather observations for NSW | Other Formats
Station Details ID: 074258 Name: DENILIQUIN AIRPORT AWS Lat: -35.56 Lon: 144.95 Height: 94.0 m
Data from the previous 72 hours. | See also: Recent months at Deniliquin
Date/Time
EDT
Temp
°C
App
Temp
°C
Dew
Point
Rel
Hum
%
Delta-T
°C
Wind Press
QNH
hPa
Press
MSL
hPa
Rain
since 9 am
mm
Dir
 
Spd
km/h
Gust
km/h
Spd
kts
Gust
kts
24/05:00am 13.9 14.6 12.1 89 1.0 ENE 0 0 0 0 1011.1 1011.0 0.0
24/04:30am 14.5 15.3 12.4 87 1.1 ENE 0 0 0 0 1010.9 1010.8 0.0
24/04:00am 14.9 15.1 12.9 88 1.1 NNE 4 7 2 4 1011.0 1010.9 0.0
24/03:30am 15.6 16.8 13.8 89 1.0 CALM 0 0 0 0 1010.8 1010.7 0.0
24/03:00am 15.6 16.7 13.6 88 1.1 CALM 0 0 0 0 1011.1 1011.0 0.0
24/02:30am 15.9 17.0 13.4 85 1.4 CALM 0 0 0 0 1011.4 1011.3 0.0
24/02:00am 15.7 15.2 12.8 83 1.6 W 7 9 4 5 1011.6 1011.5 0.0
24/01:30am 15.9 15.5 12.3 79 2.0 W 6 7 3 4 1011.8 1011.7 0.0
24/01:00am 17.0 16.8 13.1 78 2.2 SW 6 7 3 4 1012.1 1012.0 0.0
24/12:30am 17.9 17.8 13.8 77 2.3 WSW 7 9 4 5 1012.2 1012.1 0.0
24/12:00am 18.5 17.8 13.1 71 3.1 W 9 13 5 7 1012.2 1012.1 0.0
 
Date/Time
EDT
Temp
°C
App
Temp
°C
Dew
Point
Rel
Hum
%
Delta-T
°C
Wind Press
QNH
hPa
Press
MSL
hPa
Rain
since 9 am
mm
Dir
 
Spd
km/h
Gust
km/h
Spd
kts
Gust
kts
23/11:30pm 20.0 18.7 13.7 67 3.6 W 13 17 7 9 1012.2 1012.1 0.0
23/11:00pm 21.5 20.8 14.2 63 4.3 S 11 15 6 8 1012.2 1012.1 0.0
23/10:30pm 22.4 22.1 14.5 61 4.7 SSE 9 11 5 6 1012.0 1011.9 0.0
23/10:00pm 22.6 22.1 12.5 53 5.8 SSE 7 11 4 6 1011.8 1011.7 0.0
23/09:30pm 22.7 20.3 8.8 41 7.4 S 11 13 6 7 1011.4 1011.3 0.0
23/09:00pm 23.7 20.1 6.9 34 8.7 SW 15 19 8 10 1011.1 1011.0 0.0
23/08:30pm 25.5 22.5 7.6 32 9.5 W 13 17 7 9 1010.5 1010.4 0.0
23/08:00pm 28.7 26.7 6.1 24 12.0 WNW 6 6 3 3 1010.2 1010.1 0.0
23/07:30pm 29.7 27.7 8.7 27 11.6 WSW 9 11 5 6 1010.0 1009.9 0.0
23/07:00pm 32.0 30.1 8.9 24 13.0 W 9 13 5 7 1009.9 1009.8 0.0
23/06:30pm 33.8 29.9 3.6 15 15.8 W 13 17 7 9 1009.7 1009.6 0.0
23/06:00pm 35.3 30.7 1.6 12 17.2 WNW 15 22 8 12 1009.7 1009.6 0.0
23/05:30pm 35.6 30.5 0.6 11 17.6 WNW 17 24 9 13 1009.8 1009.7 0.0
23/05:00pm 35.2 30.0 2.6 13 16.9 WSW 19 24 10 13 1009.9 1009.8 0.0
23/04:30pm 35.7 31.9 1.9 12 17.3 WNW 11 20 6 11 1010.1 1010.0 0.0
23/04:00pm 36.1 32.6 3.3 13 17.3 NW 11 19 6 10 1010.2 1010.1 0.0
23/03:30pm 36.1 32.8 4.4 14 17.0 N 11 22 6 12 1010.8 1010.7 0.0
23/03:00pm 35.7 32.5 5.1 15 16.5 W 11 20 6 11 1011.4 1011.3 0.0
23/02:30pm 35.1 31.0 4.6 15 16.3 N 15 24 8 13 1011.8 1011.7 0.0
23/02:00pm 34.3 29.8 4.0 15 16.0 N 17 28 9 15 1012.1 1012.0 0.0
23/01:30pm 34.3 29.9 4.9 16 15.7 N 17 26 9 14 1012.6 1012.5 0.0
23/01:00pm 33.2 30.7 4.9 17 15.0 ENE 7 11 4 6 1013.0 1012.9 0.0
23/12:30pm 32.7 29.1 6.8 20 14.1 NE 15 24 8 13 1013.5 1013.4 0.0
23/12:00pm 32.0 27.7 7.0 21 13.6 ENE 19 28 10 15 1014.0 1013.9 0.0
23/11:30am 30.6 26.9 6.5 22 13.0 NNE 15 22 8 12 1014.6 1014.5 0.0
23/11:00am 29.5 25.8 8.0 26 11.8 N 17 24 9 13 1014.8 1014.7 0.0
23/10:30am 28.5 24.6 8.7 29 10.9 NNE 19 26 10 14 1015.1 1015.0 0.0
23/10:00am 27.2 23.2 9.1 32 10.0 NE 20 26 11 14 1015.2 1015.1 0.0
23/09:30am 26.0 22.3 10.2 37 8.8 NE 20 26 11 14 1015.3 1015.2 0.0
23/09:00am 24.6 21.8 11.5 44 7.4 ENE 17 22 9 12 1015.4 1015.3 0.8
23/08:30am 22.7 19.9 11.4 49 6.3 ENE 17 22 9 12 1015.3 1015.2 0.8
23/08:00am 20.7 18.7 11.6 56 5.1 E 13 17 7 9 1015.7 1015.6 0.8
23/07:30am 19.1 17.8 12.6 66 3.7 E 11 11 6 6 1015.6 1015.4 0.8
23/07:00am 16.8 14.9 11.7 72 2.8 ESE 13 15 7 8 1015.0 1014.9 0.8
23/06:30am 16.1 14.0 11.3 73 2.6 ESE 13 17 7 9 1015.0 1014.9 0.8
23/06:00am 17.0 15.4 11.5 70 3.0 ESE 11 13 6 7 1014.7 1014.6 0.8
23/05:30am 18.3 16.7 11.4 64 3.8 SE 11 15 6 8 1014.8 1014.7 0.8
23/05:00am 18.2 17.0 11.7 66 3.6 ESE 9 11 5 6 1014.1 1014.0 0.8
23/04:30am 17.9 17.2 12.1 69 3.2 E 7 9 4 5 1013.9 1013.8 0.8
23/04:00am 17.7 16.5 11.5 67 3.4 E 9 11 5 6 1013.9 1013.8 0.8
23/03:30am 18.5 16.8 11.1 62 4.0 NE 11 13 6 7 1013.9 1013.8 0.8
23/03:00am 17.7 16.9 11.0 65 3.6 ENE 6 7 3 4 1014.2 1014.1 0.8
23/02:30am 20.0 18.6 9.6 51 5.6 N 7 9 4 5 1014.6 1014.5 0.8
23/02:00am 21.1 19.2 10.6 51 5.8 NNE 11 13 6 7 1014.8 1014.7 0.8
23/01:30am 20.3 19.5 11.8 58 4.7 NE 7 9 4 5 1014.7 1014.6 0.8
23/01:00am 22.2 20.8 11.0 49 6.2 E 9 13 5 7 1014.9 1014.8 0.8
23/12:30am 23.3 21.5 11.0 46 6.9 E 11 15 6 8 1015.6 1015.4 0.8
23/12:00am 24.3 21.2 10.2 41 7.8 ENE 17 20 9 11 1015.4 1015.3 0.8
 
Date/Time
EDT
Temp
°C
App
Temp
°C
Dew
Point
Rel
Hum
%
Delta-T
°C
Wind Press
QNH
hPa
Press
MSL
hPa
Rain
since 9 am
mm
Dir
 
Spd
km/h
Gust
km/h
Spd
kts
Gust
kts
22/11:30pm 24.1 22.3 10.7 43 7.5 ENE 11 19 6 10 1016.4 1016.3 0.8
22/11:00pm 23.2 20.8 12.5 51 6.1 SE 17 20 9 11 1016.9 1016.8 0.8
22/10:30pm 22.4 18.9 13.5 57 5.2 SE 24 28 13 15 1017.1 1017.0 0.8
22/10:00pm 22.5 20.6 13.0 55 5.5 WSW 15 19 8 10 1018.5 1018.4 0.8
22/09:32pm 26.1 19.5 8.6 33 9.5 WSW 33 52 18 28 1018.0 1017.9 0.0
22/09:30pm 26.3 18.9 8.3 32 9.7 WSW 37 52 20 28 1017.9 1017.8 0.0
22/09:29pm 26.5 19.0 8.0 31 10.0 WSW 37 52 20 28 1018.0 1017.9 0.0
22/09:00pm 25.8 20.0 9.6 36 8.9 W 30 43 16 23 1017.1 1017.0 0.0
22/08:59pm 25.9 19.7 9.3 35 9.1 W 32 43 17 23 1017.1 1017.0 0.0
22/08:30pm 26.4 23.4 9.3 34 9.4 ESE 15 19 8 10 1015.1 1015.0 0.0
22/08:00pm 26.6 23.3 9.5 34 9.5 ESE 17 20 9 11 1014.8 1014.7 0.0
22/07:30pm 27.0 23.8 9.8 34 9.6 ESE 17 19 9 10 1014.7 1014.6 0.0
22/07:00pm 28.8 25.0 9.0 29 11.0 ESE 19 24 10 13 1014.6 1014.5 0.0
22/06:30pm 30.8 26.7 8.5 25 12.4 E 20 26 11 14 1014.3 1014.2 0.0
22/06:00pm 31.7 27.4 8.0 23 13.1 E 20 26 11 14 1014.5 1014.4 0.0
22/05:30pm 32.3 29.0 7.9 22 13.5 E 15 24 8 13 1014.7 1014.6 0.0
22/05:00pm 32.6 29.1 8.8 23 13.4 ENE 17 26 9 14 1014.9 1014.8 0.0
22/04:30pm 31.8 27.8 8.1 23 13.2 E 19 32 10 17 1015.2 1015.1 0.0
22/04:00pm 31.5 27.9 8.5 24 12.8 ENE 17 24 9 13 1015.7 1015.6 0.0
22/03:30pm 31.3 28.4 9.5 26 12.3 E 15 22 8 12 1016.2 1016.1 0.0
22/03:00pm 30.5 27.0 8.8 26 12.1 E 17 24 9 13 1016.8 1016.7 0.0
22/02:30pm 29.0 25.6 9.2 29 11.0 ENE 17 22 9 12 1017.2 1017.1 0.0
22/02:00pm 29.0 24.5 8.7 28 11.2 ENE 22 30 12 16 1017.2 1017.1 0.0
22/01:30pm 29.5 25.1 9.1 28 11.4 ENE 22 33 12 18 1017.8 1017.7 0.0
22/01:00pm 28.7 24.4 9.4 30 10.8 NE 22 30 12 16 1018.2 1018.1 0.0
22/12:30pm 27.5 23.5 8.9 31 10.2 NE 20 33 11 18 1018.8 1018.7 0.0
22/12:00pm 27.6 23.7 9.4 32 10.1 ENE 20 30 11 16 1019.3 1019.2 0.0
22/11:30am 26.2 22.5 10.0 36 9.0 ENE 20 30 11 16 1019.8 1019.7 0.0
22/11:00am 24.6 20.0 9.7 39 8.2 ENE 24 33 13 18 1020.0 1019.9 0.0
22/10:30am 23.5 19.9 10.6 44 7.2 NE 20 30 11 16 1020.5 1020.4 0.0
22/10:00am 21.5 16.5 9.7 47 6.4 ENE 26 37 14 20 1020.5 1020.4 0.0
22/09:30am 20.1 14.9 10.2 53 5.4 ENE 28 35 15 19 1020.5 1020.4 0.0
22/09:00am 18.7 14.4 9.5 55 4.9 ENE 22 33 12 18 1020.6 1020.5 0.8
22/08:30am 18.6 14.8 9.9 57 4.6 ENE 20 28 11 15 1021.0 1020.9 0.8
22/08:00am 16.7 12.5 9.9 64 3.6 ENE 22 30 12 16 1021.0 1020.9 0.8
22/07:30am 15.5 12.5 9.4 67 3.2 ENE 15 20 8 11 1021.2 1021.1 0.8
22/07:00am 14.3 10.9 9.1 71 2.7 ENE 17 22 9 12 1020.8 1020.7 0.8
22/06:30am 14.0 10.9 8.8 71 2.6 ENE 15 20 8 11 1020.7 1020.6 0.8
22/06:00am 14.4 11.3 9.0 70 2.7 ENE 15 22 8 12 1020.6 1020.5 0.8
22/05:30am 14.6 10.8 9.0 69 2.9 ENE 19 26 10 14 1020.3 1020.2 0.8
22/05:00am 15.1 11.7 9.0 67 3.1 ENE 17 24 9 13 1020.3 1020.2 0.8
22/04:30am 15.3 11.9 9.2 67 3.1 ENE 17 24 9 13 1020.5 1020.4 0.8
22/04:00am 15.5 12.2 9.4 67 3.2 ENE 17 22 9 12 1020.5 1020.4 0.8
22/03:30am 15.8 12.1 9.5 66 3.3 ENE 19 24 10 13 1020.7 1020.6 0.8
22/03:00am 16.1 12.9 9.8 66 3.3 ENE 17 20 9 11 1020.8 1020.7 0.8
22/02:30am 16.4 13.2 9.8 65 3.5 ENE 17 22 9 12 1021.0 1020.9 0.8
22/02:00am 16.6 13.7 9.8 64 3.6 ENE 15 19 8 10 1021.3 1021.2 0.8
22/01:30am 17.1 14.3 10.0 63 3.8 ENE 15 19 8 10 1021.4 1021.3 0.8
22/01:00am 18.0 14.5 10.1 60 4.2 ENE 19 24 10 13 1021.5 1021.4 0.8
22/12:30am 17.4 14.5 9.6 60 4.1 E 15 19 8 10 1021.8 1021.7 0.8
22/12:00am 19.1 15.4 9.3 53 5.2 ENE 19 24 10 13 1022.0 1021.9 0.8
 
Date/Time
EDT
Temp
°C
App
Temp
°C
Dew
Point
Rel
Hum
%
Delta-T
°C
Wind Press
QNH
hPa
Press
MSL
hPa
Rain
since 9 am
mm
Dir
 
Spd
km/h
Gust
km/h
Spd
kts
Gust
kts
21/11:30pm 20.0 15.9 8.7 48 5.9 E 20 24 11 13 1021.9 1021.8 0.8
21/11:00pm 21.3 16.8 8.6 44 6.7 E 22 32 12 17 1022.0 1021.9 0.8
21/10:30pm 17.6 14.8 8.7 56 4.6 E 13 17 7 9 1022.4 1022.3 0.8
21/10:00pm 18.3 15.8 8.3 52 5.1 E 11 13 6 7 1022.5 1022.4 0.8
21/09:30pm 19.7 17.6 8.4 48 5.9 E 9 11 5 6 1022.5 1022.4 0.8
21/09:00pm 20.0 17.8 8.0 46 6.2 E 9 11 5 6 1022.2 1022.1 0.8
21/08:30pm 20.9 18.6 7.5 42 6.9 ESE 9 11 5 6 1022.1 1022.0 0.8
21/08:00pm 22.7 20.5 7.7 38 7.8 ESE 9 11 5 6 1021.9 1021.8 0.8
21/07:30pm 24.8 21.6 7.0 32 9.3 ESE 13 15 7 8 1021.7 1021.6 0.8
21/07:00pm 27.7 24.0 4.7 23 11.7 ENE 13 17 7 9 1021.5 1021.4 0.8
21/06:30pm 28.5 25.0 5.4 23 12.0 ENE 13 19 7 10 1021.5 1021.4 0.8
21/06:00pm 28.4 25.0 5.9 24 11.8 NE 13 19 7 10 1021.5 1021.4 0.8
21/05:30pm 28.3 24.1 5.8 24 11.8 ENE 17 20 9 11 1021.4 1021.3 0.8
21/05:00pm 29.1 25.4 6.5 24 12.0 NE 15 22 8 12 1021.7 1021.6 0.8
21/04:30pm 28.3 25.0 6.4 25 11.6 NE 13 20 7 11 1021.9 1021.8 0.8
21/04:00pm 28.1 24.5 6.8 26 11.3 ENE 15 26 8 14 1022.0 1021.9 0.8
21/03:30pm 28.9 25.6 8.0 27 11.4 E 15 24 8 13 1022.5 1022.4 0.8
21/03:00pm 28.4 25.0 7.6 27 11.2 E 15 24 8 13 1023.0 1022.9 0.0
21/02:30pm 28.3 25.1 8.6 29 10.8 NNE 15 20 8 11 1023.5 1023.4 0.0
21/02:00pm 27.4 24.3 8.8 31 10.2 E 15 22 8 12 1023.9 1023.8 0.0
21/01:30pm 26.4 22.8 8.4 32 9.8 ENE 17 26 9 14 1024.4 1024.3 0.0
21/01:00pm 25.1 20.9 8.1 34 9.1 NE 20 32 11 17 1024.7 1024.7 0.0
21/12:30pm 24.6 20.4 8.1 35 8.8 ENE 20 24 11 13 1025.1 1025.1 0.0
21/12:00pm 24.0 19.6 8.8 38 8.2 ENE 22 32 12 17 1025.4 1025.4 0.0
21/11:30am 23.1 18.7 9.1 41 7.6 ENE 22 30 12 16 1025.9 1025.9 0.0
21/11:00am 21.9 16.8 9.1 44 6.8 ENE 26 37 14 20 1026.0 1026.0 0.0
21/10:30am 21.1 16.3 9.0 46 6.4 ENE 24 33 13 18 1026.2 1026.2 0.0
21/10:00am 19.6 14.0 8.6 49 5.7 NE 28 35 15 19 1026.3 1026.3 0.0
21/09:30am 18.0 12.6 8.0 52 5.1 ENE 26 35 14 19 1026.3 1026.3 0.0
21/09:00am 16.6 10.4 7.8 56 4.4 ENE 30 37 16 20 1026.1 1026.1 0.0
21/08:30am 15.4 10.4 7.9 61 3.8 ENE 24 33 13 18 1026.0 1026.0 0.0
21/08:00am 13.8 9.5 7.8 67 3.0 ENE 20 28 11 15 1026.0 1026.0 0.0
21/07:30am 12.7 8.9 7.4 70 2.6 E 17 24 9 13 1025.8 1025.8 0.0
21/07:00am 11.7 7.8 7.2 74 2.2 ENE 17 22 9 12 1025.5 1025.5 0.0
21/06:30am 11.1 7.2 7.0 76 2.0 E 17 20 9 11 1025.2 1025.2 0.0
21/06:00am 11.4 7.5 7.1 75 2.1 E 17 22 9 12 1025.0 1025.0 0.0
21/05:30am 11.6 7.7 7.1 74 2.2 E 17 20 9 11 1024.7 1024.7 0.0

Other Formats:

Comma delimited format used in spreadsheet applications
http://www.bom.gov.au/fwo/IDN60801/IDN60801.95869.axf

JavaScript Object Notation format (JSON) in row-major order
http://www.bom.gov.au/fwo/IDN60801/IDN60801.95869.json